LIBR/BDS METAR and TAF weather

Enter ICAO airport designator
Station Type Date Time Source
LIBR METAR 2019/06/18 14:50 UTC NOAA

LIBR 181450Z 34007KT CAVOK 25/21 Q1013


Station Type Date Time Source
LIBR Decoded METAR 2019/06/18 14:50 UTC NOAA

Brindisi, Italy (LIBR) 40-39N 017-57E 10M
Jun 18, 2019 - 10:50 AM EDT / 2019.06.18 1450 UTC
Wind: from the NNW (340 degrees) at 8 MPH (7 KT):0
Visibility: greater than 7 mile(s):0
Temperature: 77 F (25 C)
Dew Point: 69 F (21 C)
Relative Humidity: 78%
Pressure (altimeter): 29.91 in. Hg (1013 hPa)
ob: LIBR 181450Z 34007KT CAVOK 25/21 Q1013
cycle: 15

Station Type Date Time Source
LIBR TAF 2019/06/18 12:21 UTC NOAA

TAF LIBR 181100Z 1812/1912 02012KT CAVOK
TEMPO 1814/1818 4000 TSRA
BECMG 1818/1820 32008KT
BECMG 1908/1910 02012KT

Example: see airport list